Novato, CA

1:08 PM PST on December 11, 2019 (GMT -0800)
Gnoss

Weather History for KDVO - October, 2019

Change the Weather History Date:

Monday, October 21, 2019

  Actual Average (KAPC) Record (KAPC)
Temperature  
Mean Temperature 66 °F -  
Max Temperature 89 °F 75 °F 87 °F (1999)
Min Temperature 44 °F 48 °F 35 °F (2004)
Cooling Degree Days 2    
Growing Degree Days 16 (Base 50)    
Moisture  
Dew Point 46 °F    
Average Humidity 57    
Maximum Humidity 94    
Minimum Humidity 18    
Precipitation  
Precipitation 0.00 in - - ()
Sea Level Pressure  
Sea Level Pressure 30.13 in    
Wind  
Wind Speed 3 mph ()    
Max Wind Speed 13 mph    
Max Gust Speed 20 mph    
Visibility 9.8 miles    
Events      
Averages and records for this station are not official NWS values.
T = Trace of Precipitation, MM = Missing Value Source: Averaged Metar Reports

Daily Weather History Graph

Daily Weather History Graph

Search for Another Location

Airport or City:

Astronomy

Oct. 21, 2019 Rise Set
Actual Time 7:24 AM PDT 6:24 PM PDT
Civil Twilight 6:57 AM PDT 6:51 PM PDT
Nautical Twilight 6:27 AM PDT 7:21 PM PDT
Astronomical Twilight 5:56 AM PDT 7:52 PM PDT
Moon No Moon Rise 2:44 PM PDT (10/21)
Length of Visible Light 11h 53m
Length of Day
10h 59m
Waning Gibbous, 47% of the Moon is Illuminated
Oct 21
Waning Gibbous
Oct 27
New
Nov 4
First Quarter
Nov 12
Full
Nov 19
Last Quarter

Hourly Weather History & Observations

Time (PDT) Temp. Dew Point Humidity Pressure Visibility Wind Dir Wind Speed Gust Speed Precip Events Conditions
12:35 AM 53.6 °F 50.0 °F 88% 30.13 in 10.0 mi South 3.5 mph - N/A   Clear
12:55 AM 53.6 °F 50.0 °F 88% 30.13 in 10.0 mi South 3.5 mph - N/A   Clear
1:35 AM 50.0 °F 46.4 °F 87% 30.13 in 10.0 mi Calm Calm - N/A   Clear
1:55 AM 50.0 °F 46.4 °F 87% 30.13 in 10.0 mi Calm Calm - N/A   Clear
2:15 AM 51.8 °F 48.2 °F 88% 30.12 in 10.0 mi Calm Calm - N/A   Clear
2:35 AM 50.0 °F 46.4 °F 87% 30.13 in 10.0 mi East 3.5 mph - N/A   Clear
2:55 AM 51.8 °F 48.2 °F 88% 30.14 in 10.0 mi Calm Calm - N/A   Clear
3:15 AM 51.8 °F 48.2 °F 88% 30.13 in 10.0 mi Calm Calm - N/A   Clear
3:35 AM 51.8 °F 48.2 °F 88% 30.13 in 10.0 mi Calm Calm - N/A   Clear
3:55 AM 51.8 °F 48.2 °F 88% 30.13 in 10.0 mi Calm Calm - N/A   Clear
4:15 AM 50.0 °F 46.4 °F 87% 30.13 in 10.0 mi Calm Calm - N/A   Clear
4:35 AM 51.8 °F 48.2 °F 88% 30.13 in 10.0 mi Calm Calm - N/A   Clear
4:55 AM 50.0 °F 48.2 °F 94% 30.12 in 10.0 mi Calm Calm - N/A   Clear
5:15 AM 44.6 °F 42.8 °F 93% 30.12 in 10.0 mi Calm Calm - N/A   Clear
5:35 AM 46.4 °F 44.6 °F 93% 30.13 in 10.0 mi Calm Calm - N/A   Clear
5:55 AM 48.2 °F 44.6 °F 87% 30.13 in 10.0 mi Calm Calm - N/A   Clear
6:15 AM 46.4 °F 44.6 °F 93% 30.14 in 10.0 mi Calm Calm - N/A   Clear
6:35 AM 48.2 °F 46.4 °F 93% 30.14 in 10.0 mi East 5.8 mph - N/A   Clear
6:55 AM 48.2 °F 46.4 °F 93% 30.15 in 10.0 mi NE 4.6 mph - N/A   Clear
7:15 AM 48.2 °F 46.4 °F 93% 30.15 in 10.0 mi Calm Calm - N/A   Clear
7:35 AM 48.2 °F 46.4 °F 93% 30.15 in 10.0 mi Calm Calm - N/A   Clear
7:55 AM 50.0 °F 46.4 °F 87% 30.16 in 10.0 mi Calm Calm - N/A   Clear
8:15 AM 50.0 °F 46.4 °F 87% 30.16 in 10.0 mi Calm Calm - N/A   Clear
8:35 AM 53.6 °F 48.2 °F 82% 30.17 in 10.0 mi Calm Calm - N/A   Clear
8:55 AM 57.2 °F 50.0 °F 77% 30.18 in 10.0 mi North 3.5 mph - N/A   Clear
9:15 AM 60.8 °F 50.0 °F 68% 30.18 in 10.0 mi Calm Calm - N/A   Clear
9:35 AM 62.6 °F 51.8 °F 68% 30.18 in 10.0 mi Calm Calm - N/A   Clear
9:55 AM 66.2 °F 51.8 °F 60% 30.18 in 10.0 mi Calm Calm - N/A   Clear
10:15 AM 69.8 °F 48.2 °F 46% 30.18 in 10.0 mi Calm Calm - N/A   Clear
10:35 AM 73.4 °F 46.4 °F 38% 30.18 in 10.0 mi NNW 10.4 mph - N/A   Clear
10:55 AM 75.2 °F 46.4 °F 36% 30.18 in 10.0 mi NNW 12.7 mph - N/A   Clear
11:15 AM 77.0 °F 46.4 °F 34% 30.17 in 10.0 mi North 11.5 mph - N/A   Clear
11:35 AM 80.6 °F 46.4 °F 30% 30.16 in 10.0 mi West 4.6 mph 13.8 mph N/A   Clear
11:55 AM 80.6 °F 44.6 °F 28% 30.16 in 10.0 mi North 10.4 mph - N/A   Clear
12:15 PM 82.4 °F 44.6 °F 26% 30.16 in 8.0 mi North 9.2 mph - N/A   Clear
12:35 PM 84.2 °F 42.8 °F 23% 30.15 in 10.0 mi NW 8.1 mph - N/A   Clear
12:55 PM 86.0 °F 42.8 °F 22% 30.14 in 9.0 mi North 8.1 mph 13.8 mph N/A   Clear
1:15 PM 86.0 °F 42.8 °F 22% 30.13 in 9.0 mi Variable 6.9 mph - N/A   Clear
1:35 PM 87.8 °F 42.8 °F 21% 30.12 in 10.0 mi NNW 9.2 mph - N/A   Clear
1:55 PM 87.8 °F 42.8 °F 21% 30.12 in 5.0 mi Variable 4.6 mph - N/A   Haze
2:15 PM 89.6 °F 41.0 °F 18% 30.11 in 10.0 mi Variable 5.8 mph 15.0 mph N/A   Clear
2:35 PM 89.6 °F 41.0 °F 18% 30.10 in 9.0 mi NNW 9.2 mph 15.0 mph N/A   Clear
2:55 PM 89.6 °F 44.6 °F 21% 30.09 in 8.0 mi Variable 5.8 mph 19.6 mph N/A   Clear
3:15 PM 87.8 °F 44.6 °F 22% 30.09 in 9.0 mi ESE 5.8 mph - N/A   Clear
3:35 PM 89.6 °F 41.0 °F 18% 30.09 in 8.0 mi NNE 10.4 mph - N/A   Clear
3:55 PM 89.6 °F 41.0 °F 18% 30.09 in 10.0 mi NNW 5.8 mph - N/A   Clear
4:15 PM 89.6 °F 41.0 °F 18% 30.09 in 10.0 mi North 6.9 mph 17.3 mph N/A   Clear
4:35 PM 89.6 °F 42.8 °F 20% 30.09 in 10.0 mi WNW 9.2 mph - N/A   Clear
4:55 PM 87.8 °F 42.8 °F 21% 30.09 in 10.0 mi NW 6.9 mph - N/A   Clear
5:15 PM 86.0 °F 44.6 °F 23% 30.09 in 10.0 mi NW 5.8 mph - N/A   Clear
5:35 PM 84.2 °F 42.8 °F 23% 30.09 in 10.0 mi North 6.9 mph - N/A   Clear
5:55 PM 77.0 °F 46.4 °F 34% 30.09 in 10.0 mi NNE 6.9 mph - N/A   Clear
6:35 PM 71.6 °F 44.6 °F 38% 30.10 in 10.0 mi North 4.6 mph - N/A   Clear
6:55 PM 71.6 °F 44.6 °F 38% 30.11 in 10.0 mi Calm Calm - N/A   Clear
7:15 PM 68.0 °F 44.6 °F 43% 30.11 in 10.0 mi Calm Calm - N/A   Clear
7:35 PM 69.8 °F 44.6 °F 40% 30.11 in 10.0 mi Calm Calm - N/A   Clear
7:55 PM 64.4 °F 44.6 °F 49% 30.12 in 10.0 mi Calm Calm - N/A   Clear
8:15 PM 64.4 °F 44.6 °F 49% 30.12 in 10.0 mi Calm Calm - N/A   Clear
8:35 PM 62.6 °F 44.6 °F 52% 30.13 in 10.0 mi Calm Calm - N/A   Clear
8:55 PM 62.6 °F 46.4 °F 55% 30.13 in 10.0 mi Calm Calm - N/A   Clear
9:15 PM 62.6 °F 46.4 °F 55% 30.14 in 10.0 mi Calm Calm - N/A   Clear
9:35 PM 60.8 °F 44.6 °F 55% 30.14 in 10.0 mi Calm Calm - N/A   Clear
9:55 PM 59.0 °F 44.6 °F 59% 30.14 in 10.0 mi Calm Calm - N/A   Clear
10:15 PM 60.8 °F 46.4 °F 59% 30.14 in 10.0 mi SSE 3.5 mph - N/A   Clear
10:35 PM 53.6 °F 44.6 °F 72% 30.15 in 10.0 mi Calm Calm - N/A   Clear
10:55 PM 55.4 °F 44.6 °F 67% 30.15 in 10.0 mi North - - N/A   Clear
11:15 PM 55.4 °F 44.6 °F 67% 30.16 in 10.0 mi Calm Calm - N/A   Clear
11:35 PM 57.2 °F 46.4 °F 67% 30.16 in 8.0 mi Calm Calm - N/A   Clear
11:55 PM 55.4 °F 44.6 °F 67% 30.16 in 10.0 mi Variable 3.5 mph - N/A   Clear